WAOO

Details ICAO WAOO (BDJ)
Name Banjarmasin Syamsudin Noor
Region Indonesia
Timezone Asia/Makassar (UTC+8.0)
Plans Departing 81
Arriving 106
Stats Elevation 65 ft / 20 m (AMSL)
Location -3.442070° 114.763000°
Runways 1
Magnetic Variation 0.657° E
Sunrise 2018-10-19 22:01:05 UTC / 2018-10-20 06:01:05 Local
Sunset 2018-10-20 10:12:50 UTC / 2018-10-20 18:12:50 Local
Advertisement - Login to hide

Runways

ID Width Length Bearing (true/mag) Surface Threshold Overrun Markings Lighting
10 148 ft / 45 m 8,175 ft / 2,492 m 99.20° / 98.54° ASPHALT 0 ft / 0 m 197 ft / 60 m PREC-APP EDGE THRESHOLD ALSF-I REIL-OMNI
28 148 ft / 45 m 8,175 ft / 2,492 m 279.19° / 278.54° ASPHALT 0 ft / 0 m 197 ft / 60 m PREC-APP EDGE THRESHOLD ALSF-I REIL-OMNI

Approach Navaids

Runway Type Ident Frequency Range Bearing (true/mag) Slope Elevation
10 LOC-ILS IBDM 110.70 MHz 18 nm / 33 km 100.49° / 99.84° - 66 ft / 20 m (AMSL)
10 GS IBDM 110.70 MHz 10 nm / 19 km 100.90° / 100.24° 3.00° 54 ft / 16 m (AMSL)
10 MM MM - - 100.45° / 99.79° - 66 ft / 20 m (AMSL)

Map

Weather


0- 5 10 15 20 25 30 35+ Temperature / °C

Clouds and Precipitation
Forecast for 2018-10-20 06:00 UTC. Updated 3 hours ago

Ground ~20,000 ft ~40,000 ft Winds

METAR

WAOO 200600Z 13005KT 7000 RA SCT017 28/24 Q1010

TAF

Not found

Frequencies

Recorded 128.05 MHz ATIS
Tower 118.40 MHz ULIN TWR
Approach 126.50 MHz BANJARMASIN APP
Warning: Do not use this data for real-world aviation or navigation. No guarantee of current accuracy is given.